Time;durP1;ratioP1;P1;durP2;ratioP2;P2;SDS_P1;SDS_P2;PMS_P1;PMS_P2;Temp;Humidity;BMP_temperature;BMP_pressure;BME280_temperature;BME280_humidity;BME280_pressure;Samples;Min_cycle;Max_cycle;Signal;HPM_P1;HPM_P2
2023/11/18 00:00:27;;;;;;;4.20;2.88;;;;;;;12.72;100.00;98872.53;5141184;27;20221;-66
2023/11/18 00:02:53;;;;;;;4.85;3.30;;;;;;;12.74;100.00;98881.13;5142369;27;20023;-64
2023/11/18 00:05:18;;;;;;;2.85;2.20;;;;;;;12.76;100.00;98891.56;5141439;27;20058;-66
2023/11/18 00:07:44;;;;;;;2.67;2.10;;;;;;;12.75;100.00;98892.59;5141093;27;20193;-64
2023/11/18 00:10:10;;;;;;;2.65;2.10;;;;;;;12.77;100.00;98894.03;5129970;27;20277;-65
2023/11/18 00:12:36;;;;;;;2.72;2.20;;;;;;;12.76;100.00;98904.84;5132401;27;20188;-64
2023/11/18 00:15:05;;;;;;;2.85;2.20;;;;;;;12.69;100.00;98902.16;5123844;27;20264;-66
2023/11/18 00:17:31;;;;;;;4.28;2.60;;;;;;;12.70;100.00;98901.13;5136835;27;20081;-66
2023/11/18 00:19:57;;;;;;;3.47;2.25;;;;;;;12.69;100.00;98891.53;5130205;27;20069;-66
2023/11/18 00:22:23;;;;;;;3.47;2.17;;;;;;;12.70;100.00;98893.16;5137565;27;20043;-64
2023/11/18 00:24:48;;;;;;;2.72;1.90;;;;;;;12.65;100.00;98903.56;5136939;27;20441;-66
2023/11/18 00:27:15;;;;;;;3.88;1.95;;;;;;;12.64;100.00;98899.28;5136594;27;20035;-66
2023/11/18 00:29:41;;;;;;;2.13;1.83;;;;;;;12.63;100.00;98894.16;5137172;27;20100;-66
2023/11/18 00:32:07;;;;;;;3.55;1.80;;;;;;;12.58;100.00;98892.09;5136113;27;20105;-64
2023/11/18 00:34:33;;;;;;;2.78;1.63;;;;;;;12.59;100.00;98891.06;5135328;27;20042;-64
2023/11/18 00:36:58;;;;;;;1.77;1.52;;;;;;;12.68;100.00;98892.56;5136228;27;20308;-66
2023/11/18 00:39:24;;;;;;;1.85;1.40;;;;;;;12.73;100.00;98886.66;5136604;27;20049;-67
2023/11/18 00:41:50;;;;;;;2.30;1.40;;;;;;;12.74;100.00;98891.75;5135765;27;20042;-66
2023/11/18 00:44:15;;;;;;;2.80;1.42;;;;;;;12.63;100.00;98886.19;5136539;27;20058;-66
2023/11/18 00:46:41;;;;;;;1.55;1.45;;;;;;;12.54;100.00;98880.22;5136993;27;20035;-66
2023/11/18 00:49:06;;;;;;;1.95;1.30;;;;;;;12.50;100.00;98878.13;5136524;27;20068;-63
2023/11/18 00:51:32;;;;;;;2.72;1.40;;;;;;;12.46;100.00;98885.66;5137180;27;20039;-64
2023/11/18 00:53:58;;;;;;;1.92;1.15;;;;;;;12.39;100.00;98884.78;5136111;27;20033;-66
2023/11/18 00:56:23;;;;;;;1.55;1.27;;;;;;;12.40;100.00;98889.91;5135404;27;20031;-64
2023/11/18 00:58:49;;;;;;;2.70;1.38;;;;;;;12.31;100.00;98879.63;5136639;27;20056;-66
2023/11/18 01:01:18;;;;;;;2.17;1.55;;;;;;;12.22;100.00;98871.00;5136271;27;20134;-66
2023/11/18 01:03:46;;;;;;;2.67;1.48;;;;;;;12.12;100.00;98875.81;5134852;27;20094;-64
2023/11/18 01:06:13;;;;;;;1.92;1.50;;;;;;;11.93;100.00;98877.31;5136720;27;20337;-64
2023/11/18 01:08:38;;;;;;;1.95;1.40;;;;;;;11.85;100.00;98877.44;5136091;27;20294;-66
2023/11/18 01:11:04;;;;;;;2.03;1.55;;;;;;;11.73;100.00;98877.09;5135308;27;20035;-64
2023/11/18 01:13:31;;;;;;;2.72;1.60;;;;;;;11.65;100.00;98874.59;5135696;27;20043;-64
2023/11/18 01:15:57;;;;;;;1.92;1.50;;;;;;;11.64;100.00;98877.44;5135664;27;20101;-66
2023/11/18 01:18:22;;;;;;;2.42;1.50;;;;;;;11.62;100.00;98874.97;5135642;27;20236;-66
2023/11/18 01:20:48;;;;;;;1.88;1.60;;;;;;;11.59;100.00;98879.81;5135788;27;20098;-64
2023/11/18 01:23:14;;;;;;;2.47;2.13;;;;;;;11.53;100.00;98881.41;5135681;27;20039;-64
2023/11/18 01:25:40;;;;;;;2.97;2.22;;;;;;;11.46;100.00;98880.53;5135278;27;20042;-64
2023/11/18 01:28:05;;;;;;;3.53;2.20;;;;;;;11.31;100.00;98883.19;5135633;27;20038;-64
2023/11/18 01:30:32;;;;;;;2.42;2.22;;;;;;;11.36;100.00;98896.69;5136548;27;20318;-64
2023/11/18 01:33:00;;;;;;;2.22;2.03;;;;;;;11.39;100.00;98890.19;5135673;27;20355;-65
2023/11/18 01:35:28;;;;;;;2.83;1.90;;;;;;;11.32;100.00;98894.63;5136241;27;20309;-66
2023/11/18 01:37:54;;;;;;;1.92;1.75;;;;;;;11.26;100.00;98900.66;5135824;27;20091;-66
2023/11/18 01:40:20;;;;;;;2.15;1.73;;;;;;;11.19;100.00;98900.59;5135504;27;20328;-64
2023/11/18 01:42:46;;;;;;;2.42;2.00;;;;;;;11.15;100.00;98899.31;5136154;27;20062;-64
2023/11/18 01:45:19;;;;;;;2.35;1.70;;;;;;;11.09;100.00;98887.63;5135603;27;20219;-66
2023/11/18 01:47:48;;;;;;;1.43;1.33;;;;;;;11.11;100.00;98890.91;5133499;27;20271;-64
2023/11/18 01:50:14;;;;;;;3.10;1.30;;;;;;;11.09;100.00;98892.94;5135859;27;20424;-63
2023/11/18 01:52:41;;;;;;;3.08;1.48;;;;;;;11.09;100.00;98890.28;5135147;27;20070;-64
2023/11/18 01:55:07;;;;;;;1.63;1.35;;;;;;;10.93;100.00;98897.63;5135599;27;20035;-66
2023/11/18 01:57:36;;;;;;;1.40;1.20;;;;;;;10.84;100.00;98903.03;5135218;27;20080;-64
2023/11/18 02:00:06;;;;;;;1.20;1.10;;;;;;;10.80;100.00;98906.22;5135565;27;20107;-64
2023/11/18 02:02:32;;;;;;;1.33;1.10;;;;;;;10.72;100.00;98916.91;5135580;27;20099;-64
2023/11/18 02:05:00;;;;;;;2.67;1.45;;;;;;;10.74;100.00;98912.25;5134952;27;20066;-65
2023/11/18 02:07:27;;;;;;;1.75;1.65;;;;;;;10.74;100.00;98904.31;5135062;27;20035;-64
2023/11/18 02:09:53;;;;;;;1.25;1.05;;;;;;;10.72;100.00;98909.78;5134920;27;20035;-66
2023/11/18 02:12:29;;;;;;;1.20;1.10;;;;;;;10.70;100.00;98903.84;5135797;27;20047;-66
2023/11/18 02:14:57;;;;;;;1.30;0.98;;;;;;;10.65;100.00;98900.09;5135151;27;20091;-66
2023/11/18 02:17:25;;;;;;;1.27;1.17;;;;;;;10.60;100.00;98905.94;5136483;27;20038;-66
2023/11/18 02:19:53;;;;;;;2.20;0.90;;;;;;;10.49;100.00;98917.00;5134539;27;20027;-64
2023/11/18 02:22:19;;;;;;;1.92;0.98;;;;;;;10.50;100.00;98924.75;5134491;27;20055;-66
2023/11/18 02:24:45;;;;;;;0.70;0.70;;;;;;;10.47;100.00;98933.06;5134529;27;20038;-64
2023/11/18 02:27:11;;;;;;;1.40;0.75;;;;;;;10.43;100.00;98934.41;5134751;27;20039;-66
2023/11/18 02:29:40;;;;;;;2.90;1.70;;;;;;;10.36;100.00;98945.88;5134594;27;20331;-63
2023/11/18 02:32:31;;;;;;;1.10;0.90;;;;;;;10.34;100.00;98948.69;5134364;27;20043;-64
2023/11/18 02:35:05;;;;;;;0.70;0.70;;;;;;;10.33;100.00;98943.59;5134109;27;20356;-64
2023/11/18 02:37:32;;;;;;;1.25;1.00;;;;;;;10.28;100.00;98945.94;5134655;27;20043;-66
2023/11/18 02:40:08;;;;;;;0.85;0.85;;;;;;;10.16;100.00;98943.72;5133816;27;20031;-67
2023/11/18 02:42:37;;;;;;;0.52;0.52;;;;;;;10.14;100.00;98943.06;5134520;27;20312;-66
2023/11/18 02:45:06;;;;;;;1.08;0.80;;;;;;;10.14;100.00;98948.34;5134180;27;20325;-66
2023/11/18 02:47:32;;;;;;;1.05;0.82;;;;;;;10.13;100.00;98943.25;5134348;27;20098;-66
2023/11/18 02:50:05;;;;;;;1.15;0.75;;;;;;;10.19;100.00;98953.09;5134289;27;20050;-64
2023/11/18 02:52:33;;;;;;;0.80;0.80;;;;;;;10.17;100.00;98955.94;5134337;27;20043;-66
2023/11/18 02:54:58;;;;;;;0.90;0.77;;;;;;;10.21;100.00;98951.97;5135230;27;20031;-64
2023/11/18 02:57:24;;;;;;;1.33;0.45;;;;;;;10.18;100.00;98948.81;5134690;27;20236;-64
2023/11/18 02:59:49;;;;;;;0.60;0.60;;;;;;;10.12;100.00;98960.94;5138673;27;20038;-64
2023/11/18 03:02:15;;;;;;;1.77;0.60;;;;;;;10.11;100.00;98961.13;5139467;27;20030;-63
2023/11/18 03:04:44;;;;;;;0.95;0.80;;;;;;;10.04;100.00;98966.28;5138857;27;20049;-65
2023/11/18 03:07:10;;;;;;;0.65;0.65;;;;;;;10.06;100.00;98961.66;5137685;27;20051;-66
2023/11/18 03:09:38;;;;;;;1.52;0.80;;;;;;;10.10;100.00;98960.28;5137950;27;20035;-66
2023/11/18 03:12:03;;;;;;;0.77;0.60;;;;;;;10.05;100.00;98962.66;5137610;27;20332;-66
2023/11/18 03:14:29;;;;;;;1.00;0.90;;;;;;;10.02;100.00;98968.28;5138681;27;20087;-66
2023/11/18 03:16:55;;;;;;;1.77;0.80;;;;;;;10.14;100.00;98969.50;5138158;27;20043;-66
2023/11/18 03:19:21;;;;;;;1.33;0.70;;;;;;;10.17;100.00;98961.22;5137780;27;20607;-66
2023/11/18 03:21:53;;;;;;;2.55;0.80;;;;;;;10.02;100.00;98956.88;5138269;27;20159;-64
2023/11/18 03:24:18;;;;;;;1.10;0.88;;;;;;;10.12;100.00;98953.00;5138279;27;20088;-66
2023/11/18 03:26:44;;;;;;;0.95;0.80;;;;;;;10.08;100.00;98946.41;5137849;27;20117;-64
2023/11/18 03:29:11;;;;;;;1.52;0.70;;;;;;;10.01;100.00;98955.25;5137704;27;20320;-66
2023/11/18 03:31:36;;;;;;;0.80;0.70;;;;;;;9.93;100.00;98961.41;5137549;27;20237;-64
2023/11/18 03:34:02;;;;;;;0.90;0.90;;;;;;;9.90;100.00;98959.94;5137641;27;20042;-66
2023/11/18 03:36:27;;;;;;;1.50;0.63;;;;;;;9.90;100.00;98959.94;5138061;27;20038;-67
2023/11/18 03:38:53;;;;;;;2.25;0.85;;;;;;;9.89;100.00;98952.19;5137522;27;20039;-66
2023/11/18 03:41:18;;;;;;;1.55;0.70;;;;;;;9.89;100.00;98953.03;5138047;27;20031;-64
2023/11/18 03:43:43;;;;;;;0.93;0.80;;;;;;;9.90;100.00;98954.66;5138133;27;20031;-66
2023/11/18 03:46:10;;;;;;;0.60;0.60;;;;;;;9.79;100.00;98935.75;5137409;27;20038;-66
2023/11/18 03:48:36;;;;;;;1.23;0.65;;;;;;;9.66;100.00;98946.91;5137244;27;20256;-66
2023/11/18 03:51:03;;;;;;;0.43;0.40;;;;;;;9.84;100.00;98965.94;5138193;27;20041;-66
2023/11/18 03:53:28;;;;;;;0.60;0.60;;;;;;;9.91;100.00;98964.25;5139835;27;20039;-64
2023/11/18 03:55:54;;;;;;;0.93;0.60;;;;;;;9.97;100.00;98961.88;5139036;27;20378;-65
2023/11/18 03:58:19;;;;;;;0.80;0.80;;;;;;;9.91;100.00;98979.28;5138154;27;20027;-64
2023/11/18 04:00:45;;;;;;;1.85;1.23;;;;;;;9.87;100.00;98980.63;5137036;27;20031;-64
2023/11/18 04:03:10;;;;;;;0.52;0.52;;;;;;;9.84;100.00;98968.59;5137259;27;20402;-64
2023/11/18 04:05:38;;;;;;;0.80;0.70;;;;;;;9.73;100.00;98955.78;5138200;27;20328;-64
2023/11/18 04:08:04;;;;;;;0.75;0.75;;;;;;;9.81;100.00;98957.53;5137087;27;20122;-64
2023/11/18 04:10:30;;;;;;;0.63;0.60;;;;;;;9.56;100.00;98948.97;5136197;27;20067;-64
2023/11/18 04:12:55;;;;;;;1.02;0.70;;;;;;;9.68;100.00;98946.72;5137095;27;20043;-66
2023/11/18 04:15:21;;;;;;;1.00;0.90;;;;;;;9.66;100.00;98946.91;5135358;27;20244;-66
2023/11/18 04:17:46;;;;;;;0.88;0.80;;;;;;;9.57;100.00;98956.72;5137790;27;20092;-64
2023/11/18 04:20:12;;;;;;;1.70;0.90;;;;;;;9.50;100.00;98954.94;5137363;27;20039;-64
2023/11/18 04:22:41;;;;;;;0.80;0.80;;;;;;;9.40;100.00;98949.88;5137145;27;20058;-66
2023/11/18 04:25:11;;;;;;;0.50;0.50;;;;;;;9.44;100.00;98953.00;5136034;27;20039;-66
2023/11/18 04:27:39;;;;;;;0.68;0.60;;;;;;;9.37;100.00;98955.50;5136541;27;20127;-64
2023/11/18 04:30:05;;;;;;;0.60;0.60;;;;;;;9.25;100.00;98949.75;5136744;27;20030;-66
2023/11/18 04:32:34;;;;;;;0.80;0.80;;;;;;;9.29;100.00;98961.63;5136443;27;20039;-64
2023/11/18 04:35:06;;;;;;;0.80;0.70;;;;;;;9.45;100.00;98942.25;5136844;27;20035;-66
2023/11/18 04:37:35;;;;;;;0.65;0.65;;;;;;;9.54;100.00;98938.56;5136525;27;20035;-66
2023/11/18 04:40:02;;;;;;;0.73;0.73;;;;;;;9.38;100.00;98946.59;5136223;27;20027;-64
2023/11/18 04:42:29;;;;;;;1.13;0.70;;;;;;;9.34;100.00;98945.25;5136876;27;20082;-66
2023/11/18 04:44:55;;;;;;;0.98;0.88;;;;;;;9.23;100.00;98941.19;5136817;27;20031;-66
2023/11/18 04:47:21;;;;;;;1.15;0.93;;;;;;;9.20;100.00;98943.34;5136289;27;20381;-67
2023/11/18 04:49:46;;;;;;;1.20;1.08;;;;;;;9.16;100.00;98958.72;5136864;27;20031;-66
2023/11/18 04:52:12;;;;;;;0.70;0.70;;;;;;;8.99;100.00;98956.31;5135877;27;20050;-66
2023/11/18 04:54:37;;;;;;;1.10;0.95;;;;;;;9.07;100.00;98966.84;5136503;27;20039;-66
2023/11/18 04:57:03;;;;;;;0.85;0.85;;;;;;;8.93;100.00;98977.13;5135854;27;20293;-66
2023/11/18 04:59:30;;;;;;;1.13;1.02;;;;;;;8.94;100.00;98981.41;5136540;27;20027;-66
2023/11/18 05:01:56;;;;;;;1.38;1.27;;;;;;;9.01;100.00;98971.00;5135558;27;20360;-66
2023/11/18 05:04:21;;;;;;;2.05;1.33;;;;;;;8.98;100.00;98973.16;5135822;27;20039;-64
2023/11/18 05:06:47;;;;;;;2.42;1.63;;;;;;;8.99;100.00;98972.16;5134386;27;20051;-66
2023/11/18 05:09:12;;;;;;;2.63;2.00;;;;;;;8.98;100.00;98952.03;5136278;27;20091;-63
2023/11/18 05:11:38;;;;;;;1.73;1.48;;;;;;;8.83;99.58;98954.56;5135558;27;20251;-66
2023/11/18 05:14:04;;;;;;;1.33;1.10;;;;;;;8.76;100.00;98959.69;5135226;27;20329;-63
2023/11/18 05:16:30;;;;;;;1.00;1.00;;;;;;;8.74;100.00;98960.84;5136202;27;20049;-64
2023/11/18 05:18:55;;;;;;;1.48;1.38;;;;;;;8.62;100.00;98957.75;5135470;27;20337;-66
2023/11/18 05:21:21;;;;;;;1.65;1.55;;;;;;;8.63;100.00;98959.41;5135221;27;20060;-63
2023/11/18 05:23:47;;;;;;;1.92;1.80;;;;;;;8.55;99.49;98959.41;5136181;27;20041;-66
2023/11/18 05:26:12;;;;;;;5.93;2.85;;;;;;;8.61;99.76;98958.75;5135086;27;20046;-66
2023/11/18 05:28:38;;;;;;;2.88;2.35;;;;;;;8.63;99.73;98954.94;5135578;27;20236;-63
2023/11/18 05:31:04;;;;;;;2.67;2.05;;;;;;;8.62;98.60;98945.38;5135499;27;20342;-64
2023/11/18 05:33:31;;;;;;;2.58;2.10;;;;;;;8.39;97.96;98931.25;5135232;27;20034;-63
2023/11/18 05:35:57;;;;;;;3.72;2.67;;;;;;;8.42;99.02;98923.00;5134824;27;20046;-64
2023/11/18 05:38:23;;;;;;;4.20;3.80;;;;;;;8.27;98.12;98930.72;5134722;27;20043;-66
2023/11/18 05:40:56;;;;;;;2.25;2.00;;;;;;;8.37;98.53;98937.69;5135061;27;20035;-63
2023/11/18 05:43:29;;;;;;;4.53;3.15;;;;;;;8.32;97.68;98949.53;5134660;27;20094;-64
2023/11/18 05:48:39;;;;;;;4.22;2.95;;;;;;;8.34;97.61;98962.59;5136675;27;20075;-63
2023/11/18 05:51:05;;;;;;;3.17;2.88;;;;;;;8.36;97.62;98965.88;5134946;27;20254;-66
2023/11/18 05:53:31;;;;;;;3.35;2.50;;;;;;;8.40;96.82;98969.00;5134049;27;20038;-65
2023/11/18 05:55:56;;;;;;;3.33;2.47;;;;;;;8.32;95.81;98964.50;5135092;27;20225;-63
2023/11/18 05:58:21;;;;;;;3.38;2.72;;;;;;;8.36;95.76;98979.06;5136795;27;20707;-64
2023/11/18 06:00:47;;;;;;;3.00;2.63;;;;;;;8.35;95.47;98976.59;5134942;27;20135;-64
2023/11/18 06:03:12;;;;;;;2.97;2.60;;;;;;;8.37;95.74;98956.16;5135140;27;20039;-63
2023/11/18 06:05:38;;;;;;;2.78;2.47;;;;;;;8.30;95.26;98951.47;5133802;27;20032;-66
2023/11/18 06:08:04;;;;;;;2.67;2.28;;;;;;;8.10;94.64;98967.81;5133634;27;20027;-67
2023/11/18 06:10:32;;;;;;;2.90;2.53;;;;;;;8.17;95.65;98979.34;5133305;27;20031;-63
2023/11/18 06:12:58;;;;;;;3.88;2.53;;;;;;;8.22;94.84;98990.22;5133979;27;20039;-66
2023/11/18 06:15:24;;;;;;;3.83;3.53;;;;;;;8.19;94.90;99009.00;5133681;27;20042;-66
2023/11/18 06:17:49;;;;;;;2.33;1.90;;;;;;;8.19;93.54;99004.56;5133443;27;20042;-64
2023/11/18 06:20:16;;;;;;;2.60;2.40;;;;;;;8.13;93.36;99010.50;5132939;27;20034;-66
2023/11/18 06:22:42;;;;;;;3.08;2.78;;;;;;;8.05;93.56;99013.13;5133260;27;20271;-64
2023/11/18 06:25:08;;;;;;;4.15;3.08;;;;;;;7.99;93.03;99019.06;5133613;27;20080;-64
2023/11/18 06:27:34;;;;;;;4.05;3.45;;;;;;;8.01;92.60;99014.44;5134100;27;20042;-63
2023/11/18 06:29:59;;;;;;;4.47;3.20;;;;;;;8.06;93.21;99006.03;5136175;27;20035;-63
2023/11/18 06:32:27;;;;;;;3.15;2.70;;;;;;;8.04;93.34;99002.75;5136044;27;20039;-63
2023/11/18 06:34:53;;;;;;;2.50;2.30;;;;;;;8.12;91.39;99019.41;5136760;27;20023;-63
2023/11/18 06:37:19;;;;;;;2.78;2.58;;;;;;;8.06;90.87;99019.22;5136778;27;20072;-66
2023/11/18 06:39:47;;;;;;;3.38;2.90;;;;;;;8.10;90.61;99016.09;5136213;27;20039;-63
2023/11/18 06:42:13;;;;;;;3.58;2.90;;;;;;;8.21;89.64;99014.94;5136996;27;20031;-66
2023/11/18 06:44:39;;;;;;;4.53;4.13;;;;;;;8.08;89.89;99001.44;5136857;27;20035;-64
2023/11/18 06:47:06;;;;;;;2.58;2.33;;;;;;;8.19;88.92;98994.03;5137057;27;20098;-63
2023/11/18 06:49:34;;;;;;;4.70;3.88;;;;;;;8.21;88.41;98999.13;5136406;27;20048;-64
2023/11/18 06:52:03;;;;;;;2.60;2.40;;;;;;;7.93;87.59;98999.44;5135804;27;20114;-63
2023/11/18 06:54:33;;;;;;;2.60;2.40;;;;;;;8.12;88.72;98998.31;5136482;27;20058;-63
2023/11/18 06:56:58;;;;;;;3.42;3.05;;;;;;;8.18;88.55;99000.28;5134969;28;20035;-67
2023/11/18 06:59:23;;;;;;;2.53;2.00;;;;;;;8.16;87.25;98988.25;5136499;27;20042;-63
2023/11/18 07:01:49;;;;;;;3.22;3.03;;;;;;;7.91;88.86;98990.88;5136611;27;20035;-64
2023/11/18 07:04:14;;;;;;;2.25;2.05;;;;;;;8.01;87.07;98994.19;5137405;27;20042;-63
2023/11/18 07:06:40;;;;;;;3.97;2.40;;;;;;;7.97;86.44;98989.41;5136379;27;20312;-66
2023/11/18 07:09:13;;;;;;;2.38;1.98;;;;;;;7.97;86.24;98995.50;5136475;27;20027;-66
2023/11/18 07:11:41;;;;;;;2.75;2.30;;;;;;;7.92;85.50;98992.53;5136274;27;20194;-64
2023/11/18 07:14:09;;;;;;;2.38;2.03;;;;;;;7.84;86.04;99000.41;5137166;27;20466;-66
2023/11/18 07:16:34;;;;;;;2.33;1.70;;;;;;;7.91;85.66;98997.97;5136606;27;20027;-66
2023/11/18 07:19:00;;;;;;;1.52;1.42;;;;;;;7.99;85.52;98984.78;5136615;27;20849;-66
2023/11/18 07:21:25;;;;;;;2.60;1.70;;;;;;;7.87;85.53;98989.56;5135696;27;20035;-63
2023/11/18 07:23:50;;;;;;;2.05;1.80;;;;;;;7.98;84.98;98983.97;5135083;27;20237;-64
2023/11/18 07:26:16;;;;;;;2.28;2.08;;;;;;;8.00;84.49;98984.63;5132964;27;20035;-63
2023/11/18 07:28:43;;;;;;;1.70;1.45;;;;;;;8.01;84.11;98964.34;5133125;28;20039;-64
2023/11/18 07:31:09;;;;;;;2.20;1.75;;;;;;;7.94;83.14;98972.09;5132568;28;20027;-64
2023/11/18 07:33:34;;;;;;;1.58;1.48;;;;;;;7.87;83.64;98975.56;5134141;28;20084;-64
2023/11/18 07:36:00;;;;;;;3.75;1.75;;;;;;;7.96;83.75;98971.94;5132393;28;20065;-66
2023/11/18 07:38:27;;;;;;;2.58;1.30;;;;;;;7.99;83.21;98968.97;5132815;27;20039;-66
2023/11/18 07:40:56;;;;;;;3.00;1.20;;;;;;;8.10;82.73;98976.56;5133241;27;20031;-66
2023/11/18 07:43:22;;;;;;;1.38;1.30;;;;;;;7.91;80.82;98964.50;5132190;27;20039;-63
2023/11/18 07:45:52;;;;;;;3.25;1.90;;;;;;;8.03;81.82;98965.00;5134324;27;20050;-66
2023/11/18 07:48:20;;;;;;;2.58;1.30;;;;;;;8.04;80.43;98953.47;5136233;27;20080;-64
2023/11/18 07:50:47;;;;;;;1.33;1.23;;;;;;;8.11;80.29;98948.38;5136423;27;20051;-65
2023/11/18 07:53:13;;;;;;;3.17;1.42;;;;;;;8.22;79.07;98958.59;5134874;27;20129;-66
2023/11/18 07:55:39;;;;;;;1.40;1.25;;;;;;;8.31;79.37;98954.94;5136874;27;20045;-63
2023/11/18 07:58:10;;;;;;;1.10;0.95;;;;;;;8.31;78.30;98961.03;5136550;27;20088;-63
2023/11/18 08:00:45;;;;;;;1.52;1.23;;;;;;;8.36;77.57;98959.78;5137134;27;20039;-66
2023/11/18 08:03:14;;;;;;;0.98;0.98;;;;;;;8.28;78.40;98976.38;5135574;27;20281;-66
2023/11/18 08:05:45;;;;;;;0.98;0.98;;;;;;;8.28;77.84;98966.66;5136368;27;20047;-66
2023/11/18 08:08:11;;;;;;;1.42;0.88;;;;;;;8.36;78.02;98979.06;5135233;27;20035;-63
2023/11/18 08:10:38;;;;;;;1.33;1.15;;;;;;;8.32;78.51;98986.47;5135269;27;20080;-66
2023/11/18 08:13:06;;;;;;;2.22;1.40;;;;;;;8.42;76.27;98974.94;5134997;27;20099;-64
2023/11/18 08:15:32;;;;;;;3.13;1.70;;;;;;;8.25;77.40;98966.97;5135880;27;20070;-66
2023/11/18 08:17:57;;;;;;;0.98;0.90;;;;;;;8.45;76.63;98982.53;5136345;27;20027;-66
2023/11/18 08:20:25;;;;;;;2.10;1.10;;;;;;;8.41;76.75;98987.31;5136180;27;20043;-64
2023/11/18 08:22:50;;;;;;;1.75;0.60;;;;;;;8.46;75.82;98982.34;5135741;27;20045;-66
2023/11/18 08:25:17;;;;;;;1.90;0.70;;;;;;;8.49;75.75;98992.56;5135874;27;20293;-64
2023/11/18 08:27:43;;;;;;;1.38;1.00;;;;;;;8.55;75.12;98991.09;5135647;27;20083;-66
2023/11/18 08:30:11;;;;;;;1.45;1.17;;;;;;;8.47;75.78;98999.84;5135351;27;20112;-65
2023/11/18 08:32:43;;;;;;;1.98;0.90;;;;;;;8.49;75.25;98997.03;5138585;27;20408;-67
2023/11/18 08:35:10;;;;;;;2.17;1.17;;;;;;;8.51;75.49;98982.69;5139376;27;20038;-66
2023/11/18 08:37:38;;;;;;;1.00;1.00;;;;;;;8.52;75.14;98970.31;5139315;27;20106;-66
2023/11/18 08:40:14;;;;;;;1.15;0.65;;;;;;;8.48;76.00;98974.28;5138243;27;20050;-64
2023/11/18 08:42:47;;;;;;;0.88;0.88;;;;;;;8.30;74.58;98987.59;5138496;27;20035;-66
2023/11/18 08:45:14;;;;;;;1.40;1.07;;;;;;;8.53;75.61;98982.50;5138982;27;20035;-66
2023/11/18 08:47:46;;;;;;;1.23;1.10;;;;;;;8.62;75.60;98984.97;5139185;27;20468;-64
2023/11/18 08:50:16;;;;;;;1.17;0.70;;;;;;;8.60;74.44;99000.16;5139333;27;20047;-64
2023/11/18 08:52:46;;;;;;;0.80;0.77;;;;;;;8.67;73.87;98994.19;5138694;27;20043;-64
2023/11/18 08:55:19;;;;;;;0.73;0.68;;;;;;;8.70;74.02;98999.13;5139116;27;20103;-66
2023/11/18 08:58:03;;;;;;;0.80;0.80;;;;;;;8.66;73.77;98987.28;5139699;27;20109;-64
2023/11/18 09:00:47;;;;;;;0.77;0.60;;;;;;;8.67;73.01;98976.53;5139479;27;20086;-63
2023/11/18 09:03:51;;;;;;;1.15;0.85;;;;;;;8.57;71.83;98950.34;5137067;27;20114;-63
2023/11/18 09:06:17;;;;;;;0.70;0.70;;;;;;;8.60;73.03;98965.84;5137640;27;20039;-67
2023/11/18 09:08:52;;;;;;;0.65;0.65;;;;;;;8.71;72.09;98972.56;5137636;27;20248;-66
2023/11/18 09:11:19;;;;;;;1.70;0.80;;;;;;;8.60;71.64;98978.22;5138165;27;20080;-63
2023/11/18 09:13:49;;;;;;;0.63;0.63;;;;;;;8.66;70.74;98989.91;5139072;27;20051;-66
2023/11/18 09:16:15;;;;;;;0.95;0.50;;;;;;;8.66;71.52;98950.31;5138733;27;20026;-63
2023/11/18 09:18:44;;;;;;;1.55;0.77;;;;;;;8.68;71.78;98972.91;5137248;27;20047;-63
2023/11/18 09:21:14;;;;;;;1.50;1.08;;;;;;;8.63;70.67;98965.50;5138433;27;20059;-64
2023/11/18 09:23:44;;;;;;;2.45;0.85;;;;;;;8.72;72.46;98970.75;5137687;27;20110;-67
2023/11/18 09:26:10;;;;;;;0.93;0.50;;;;;;;8.70;71.09;98952.44;5137208;27;20298;-66
2023/11/18 09:28:36;;;;;;;3.13;0.68;;;;;;;8.82;70.37;98966.94;5138166;27;20051;-66
2023/11/18 09:31:03;;;;;;;0.50;0.50;;;;;;;8.67;71.65;98959.88;5131793;27;20031;-66
2023/11/18 09:33:33;;;;;;;1.25;0.60;;;;;;;8.72;70.53;98947.81;5138598;27;20054;-66
2023/11/18 09:36:07;;;;;;;1.23;0.52;;;;;;;8.83;71.31;98941.38;5138685;27;20027;-66
2023/11/18 09:38:37;;;;;;;1.67;0.60;;;;;;;8.78;70.43;98941.03;5138227;27;20292;-66
2023/11/18 09:41:07;;;;;;;1.02;0.90;;;;;;;8.91;70.83;98936.88;5137911;27;20023;-66
2023/11/18 09:43:42;;;;;;;0.77;0.77;;;;;;;8.71;71.34;98942.72;5137385;27;20039;-66
2023/11/18 09:46:12;;;;;;;0.40;0.40;;;;;;;8.66;71.37;98929.22;5136456;27;20030;-66
2023/11/18 09:48:45;;;;;;;1.95;0.70;;;;;;;8.86;71.40;98927.81;5137554;27;20039;-64
2023/11/18 09:51:16;;;;;;;1.73;0.55;;;;;;;8.92;70.30;98946.44;5137979;27;20037;-66
2023/11/18 09:53:46;;;;;;;0.98;0.90;;;;;;;9.04;69.35;98933.69;5138046;27;20059;-66
2023/11/18 09:56:37;;;;;;;0.40;0.40;;;;;;;8.89;69.51;98922.19;5137531;27;20035;-66
2023/11/18 09:59:44;;;;;;;0.63;0.43;;;;;;;9.06;69.50;98922.94;5122952;27;20047;-66
2023/11/18 10:02:10;;;;;;;1.30;0.70;;;;;;;8.99;69.42;98924.63;5117443;27;20314;-64
2023/11/18 10:04:39;;;;;;;0.90;0.68;;;;;;;8.96;68.88;98928.44;5138554;27;20031;-64
2023/11/18 10:07:07;;;;;;;1.60;0.85;;;;;;;8.92;71.30;98927.97;5137370;27;20031;-64
2023/11/18 10:09:43;;;;;;;1.30;0.80;;;;;;;8.97;68.69;98924.81;5137068;27;20035;-66
2023/11/18 10:12:11;;;;;;;1.05;0.95;;;;;;;8.98;68.60;98915.06;5138060;27;20058;-63
2023/11/18 10:14:43;;;;;;;0.50;0.50;;;;;;;8.93;69.24;98919.03;5137529;27;20062;-63
2023/11/18 10:17:09;;;;;;;1.35;0.60;;;;;;;9.01;68.59;98927.94;5138630;27;20035;-66
2023/11/18 10:20:12;;;;;;;1.35;1.25;;;;;;;8.92;70.31;98930.59;5138304;27;20168;-66
2023/11/18 10:22:38;;;;;;;0.68;0.68;;;;;;;9.01;69.14;98912.09;5093394;28;20337;-63
2023/11/18 10:25:06;;;;;;;0.70;0.70;;;;;;;9.05;69.55;98929.22;5130059;27;20062;-66
2023/11/18 10:27:34;;;;;;;1.63;0.90;;;;;;;9.15;69.42;98930.66;5138376;27;20039;-64
2023/11/18 10:30:18;;;;;;;0.80;0.70;;;;;;;9.26;69.87;98925.00;5137967;27;20055;-63
2023/11/18 10:32:55;;;;;;;0.77;0.70;;;;;;;9.26;69.95;98909.13;5137557;27;20446;-63
2023/11/18 10:35:21;;;;;;;1.10;1.10;;;;;;;9.24;68.37;98905.03;5137775;27;20113;-65
2023/11/18 10:37:47;;;;;;;0.90;0.80;;;;;;;9.19;69.92;98897.63;5138044;27;20031;-66
2023/11/18 10:40:14;;;;;;;1.63;1.00;;;;;;;9.20;69.44;98901.91;5137107;27;20240;-66
2023/11/18 10:42:42;;;;;;;1.48;1.08;;;;;;;9.15;68.79;98908.72;5137276;27;20027;-66
2023/11/18 10:45:12;;;;;;;0.70;0.70;;;;;;;9.19;68.68;98904.72;5137382;27;20349;-64
2023/11/18 10:47:42;;;;;;;0.85;0.80;;;;;;;9.27;69.76;98902.84;5137581;27;20062;-64
2023/11/18 10:50:09;;;;;;;1.05;1.05;;;;;;;9.37;68.69;98902.66;5138241;27;20042;-66
2023/11/18 10:52:40;;;;;;;1.30;0.60;;;;;;;9.35;69.42;98904.63;5137834;27;20053;-66
2023/11/18 10:55:11;;;;;;;1.75;1.10;;;;;;;9.51;70.39;98893.97;5137973;27;20098;-66
2023/11/18 10:57:38;;;;;;;1.80;1.00;;;;;;;9.46;66.74;98903.44;5137769;27;20076;-67
2023/11/18 11:00:12;;;;;;;1.67;1.48;;;;;;;9.55;68.22;98903.22;5136701;27;20035;-66
2023/11/18 11:02:41;;;;;;;0.80;0.60;;;;;;;9.68;66.38;98909.72;5137551;28;20039;-67
2023/11/18 11:05:07;;;;;;;0.80;0.80;;;;;;;9.54;68.37;98898.91;5138164;27;20027;-66
2023/11/18 11:07:32;;;;;;;1.92;0.90;;;;;;;9.54;67.26;98906.84;5138497;27;20035;-65
2023/11/18 11:10:04;;;;;;;2.45;0.90;;;;;;;9.58;66.30;98923.19;5137228;27;20043;-63
2023/11/18 11:12:33;;;;;;;2.60;1.15;;;;;;;9.46;66.61;98909.53;5137309;27;20185;-64
2023/11/18 11:15:21;;;;;;;1.52;1.42;;;;;;;9.20;66.20;98894.00;5137240;27;20047;-63
2023/11/18 11:17:54;;;;;;;1.20;1.10;;;;;;;9.10;68.01;98909.22;5137022;27;20343;-64
2023/11/18 11:20:26;;;;;;;1.48;0.82;;;;;;;9.23;66.99;98908.66;5140047;27;20031;-67
2023/11/18 11:23:14;;;;;;;1.88;1.05;;;;;;;9.18;66.31;98906.53;5140908;27;20037;-63
2023/11/18 11:26:04;;;;;;;0.93;0.73;;;;;;;9.24;66.29;98921.69;5140390;27;20207;-66
2023/11/18 11:29:04;;;;;;;2.25;1.30;;;;;;;9.36;65.32;98919.47;5140542;27;20039;-66
2023/11/18 11:31:41;;;;;;;2.30;2.20;;;;;;;9.23;66.26;98916.59;5122523;27;20054;-66
2023/11/18 11:34:14;;;;;;;3.13;1.52;;;;;;;9.27;66.90;98910.78;5141270;27;20202;-63
2023/11/18 11:36:48;;;;;;;1.85;0.75;;;;;;;9.28;64.87;98906.31;5140447;27;20224;-63
2023/11/18 11:39:30;;;;;;;;;;;;;;;9.17;65.48;98901.44;5140933;27;20431;-64
2023/11/18 11:41:56;;;;;;;0.50;0.50;;;;;;;9.23;65.22;98922.69;5139999;27;19990;-66
2023/11/18 11:44:32;;;;;;;0.82;0.80;;;;;;;9.29;66.33;98911.44;5140684;27;20345;-66